Time;durP1;ratioP1;P1;durP2;ratioP2;P2;SDS_P1;SDS_P2;PMS_P1;PMS_P2;Temp;Humidity;BMP_temperature;BMP_pressure;BME280_temperature;BME280_humidity;BME280_pressure;Samples;Min_cycle;Max_cycle;Signal;HPM_P1;HPM_P2
2021/09/14 00:01:42;;;;;;;0.50;0.40;;;14.10;99.90;;;;;;5056587;28;20489;-85
2021/09/14 00:04:09;;;;;;;0.95;0.95;;;14.10;99.90;;;;;;5056421;28;20515;-84
2021/09/14 00:06:39;;;;;;;0.50;0.40;;;14.10;99.90;;;;;;5055906;28;20202;-84
2021/09/14 00:09:07;;;;;;;0.50;0.40;;;14.10;99.90;;;;;;5056098;28;20737;-84
2021/09/14 00:11:35;;;;;;;0.50;0.40;;;14.00;99.90;;;;;;5056594;28;20195;-84
2021/09/14 00:14:01;;;;;;;0.50;0.40;;;14.00;99.90;;;;;;5056586;28;20495;-84
2021/09/14 00:16:30;;;;;;;0.50;0.40;;;14.00;99.90;;;;;;5055533;28;20437;-84
2021/09/14 00:18:56;;;;;;;2.90;1.27;;;14.00;99.90;;;;;;5055527;28;20448;-84
2021/09/14 00:21:23;;;;;;;0.50;0.40;;;14.00;99.90;;;;;;5055851;28;20475;-84
2021/09/14 00:23:50;;;;;;;3.13;2.93;;;13.90;99.90;;;;;;5055456;28;21126;-84
2021/09/14 00:26:17;;;;;;;0.50;0.40;;;13.90;99.90;;;;;;5055971;28;20456;-84
2021/09/14 00:28:44;;;;;;;0.50;0.40;;;13.80;99.90;;;;;;5056206;28;20464;-84
2021/09/14 00:31:10;;;;;;;0.50;0.40;;;13.70;99.90;;;;;;5055157;28;20822;-83
2021/09/14 00:33:38;;;;;;;0.50;0.40;;;13.70;99.90;;;;;;5055465;28;20449;-84
2021/09/14 00:36:05;;;;;;;0.50;0.40;;;13.60;99.90;;;;;;5055920;28;20432;-84
2021/09/14 00:38:32;;;;;;;0.50;0.40;;;13.50;99.90;;;;;;5054527;28;20442;-84
2021/09/14 00:40:59;;;;;;;0.50;0.40;;;13.50;99.90;;;;;;5055638;28;20533;-84
2021/09/14 00:43:26;;;;;;;0.50;0.40;;;13.50;99.90;;;;;;5055679;28;20440;-84
2021/09/14 00:45:53;;;;;;;0.50;0.40;;;13.40;99.90;;;;;;5056108;28;20457;-83
2021/09/14 00:48:20;;;;;;;0.50;0.40;;;13.40;99.90;;;;;;5055507;28;20437;-84
2021/09/14 00:50:48;;;;;;;0.50;0.40;;;13.40;99.90;;;;;;5055653;28;20456;-84
2021/09/14 00:53:16;;;;;;;0.50;0.40;;;13.50;99.90;;;;;;5054829;28;20448;-83
2021/09/14 00:55:43;;;;;;;0.50;0.40;;;13.60;99.90;;;;;;5054721;28;20460;-84
2021/09/14 00:58:09;;;;;;;0.50;0.40;;;13.60;99.90;;;;;;5054248;28;20195;-82
2021/09/14 01:00:36;;;;;;;0.50;0.40;;;13.60;99.90;;;;;;5054206;28;20515;-83
2021/09/14 01:03:03;;;;;;;0.50;0.40;;;13.60;99.90;;;;;;5054088;28;20440;-83
2021/09/14 01:05:30;;;;;;;0.50;0.30;;;13.60;99.90;;;;;;5054646;28;20850;-83
2021/09/14 01:07:58;;;;;;;0.50;0.40;;;13.60;99.90;;;;;;5054926;28;20441;-84
2021/09/14 01:10:25;;;;;;;0.50;0.40;;;13.60;99.90;;;;;;5053614;28;20445;-83
2021/09/14 01:12:52;;;;;;;0.50;0.40;;;13.50;99.90;;;;;;5054208;28;20448;-82
2021/09/14 01:15:19;;;;;;;0.50;0.40;;;13.50;99.90;;;;;;5054604;28;20842;-83
2021/09/14 01:17:45;;;;;;;0.50;0.40;;;13.50;99.90;;;;;;5054415;28;20437;-83
2021/09/14 01:20:13;;;;;;;0.50;0.40;;;13.50;99.90;;;;;;5053753;28;20206;-83
2021/09/14 01:22:41;;;;;;;0.50;0.40;;;13.50;99.90;;;;;;5054160;28;20441;-82
2021/09/14 01:25:16;;;;;;;0.50;0.40;;;13.60;99.90;;;;;;5053593;28;20488;-84
2021/09/14 01:27:43;;;;;;;0.50;0.40;;;13.50;99.90;;;;;;5054145;28;20453;-83
2021/09/14 01:30:17;;;;;;;0.50;0.40;;;13.50;99.90;;;;;;5054575;28;20721;-84
2021/09/14 01:32:45;;;;;;;0.50;0.40;;;13.50;99.90;;;;;;5054629;28;20479;-82
2021/09/14 01:35:14;;;;;;;0.50;0.40;;;13.50;99.90;;;;;;5054222;28;20215;-84
2021/09/14 01:37:43;;;;;;;0.50;0.40;;;13.50;99.90;;;;;;5053582;28;20573;-83
2021/09/14 01:40:10;;;;;;;0.50;0.40;;;13.40;99.90;;;;;;5045981;28;20443;-84
2021/09/14 01:42:38;;;;;;;0.50;0.40;;;13.40;99.90;;;;;;5054388;28;20457;-84
2021/09/14 01:45:06;;;;;;;0.50;0.30;;;13.40;99.90;;;;;;5054062;28;20230;-83
2021/09/14 01:47:33;;;;;;;0.50;0.40;;;13.40;99.90;;;;;;5053616;28;20455;-83
2021/09/14 01:50:00;;;;;;;0.50;0.40;;;13.40;99.90;;;;;;5053917;28;20432;-83
2021/09/14 01:52:28;;;;;;;0.50;0.40;;;13.40;99.90;;;;;;5058065;28;20627;-84
2021/09/14 01:54:56;;;;;;;0.50;0.40;;;13.40;99.90;;;;;;5057709;28;20305;-83
2021/09/14 01:57:26;;;;;;;0.50;0.40;;;13.40;99.90;;;;;;5057220;28;20447;-84
2021/09/14 01:59:55;;;;;;;0.50;0.40;;;13.40;99.90;;;;;;5057007;28;20473;-83
2021/09/14 02:02:31;;;;;;;0.50;0.40;;;13.30;99.90;;;;;;5057380;28;20203;-83
2021/09/14 02:05:01;;;;;;;0.50;0.40;;;13.30;99.90;;;;;;5057217;28;20488;-83
2021/09/14 02:07:38;;;;;;;0.50;0.40;;;13.20;99.90;;;;;;5057691;28;20942;-83
2021/09/14 02:24:22;;;;;;;0.50;0.40;;;13.10;99.90;;;;;;5056776;28;20257;-83
2021/09/14 02:40:53;;;;;;;0.50;0.40;;;13.00;99.90;;;;;;5056479;28;20193;-84
2021/09/14 03:00:08;;;;;;;0.50;0.40;;;12.80;99.90;;;;;;4994456;28;20287;-83
2021/09/14 03:02:35;;;;;;;0.50;0.40;;;12.70;99.90;;;;;;5021980;22;20250;-84
2021/09/14 03:05:03;;;;;;;0.50;0.40;;;12.70;99.90;;;;;;5033570;28;20250;-86
2021/09/14 03:07:30;;;;;;;0.50;0.40;;;12.70;99.90;;;;;;5040347;28;20210;-85
2021/09/14 03:09:57;;;;;;;0.50;0.40;;;12.60;99.90;;;;;;5039100;28;20206;-84
2021/09/14 03:12:24;;;;;;;0.50;0.40;;;12.60;99.90;;;;;;5040448;28;20257;-85
2021/09/14 03:14:50;;;;;;;0.50;0.40;;;12.50;99.90;;;;;;5039511;28;20195;-85
2021/09/14 03:17:18;;;;;;;0.50;0.40;;;12.50;99.90;;;;;;5040544;28;20571;-85
2021/09/14 03:19:45;;;;;;;0.50;0.40;;;12.50;99.90;;;;;;5037926;28;20206;-85
2021/09/14 03:22:12;;;;;;;0.50;0.40;;;12.50;99.90;;;;;;5039231;28;20223;-84
2021/09/14 03:24:39;;;;;;;0.50;0.40;;;12.60;99.90;;;;;;5038612;28;20230;-82
2021/09/14 03:27:06;;;;;;;0.50;0.40;;;12.60;99.90;;;;;;5038869;28;20199;-85
2021/09/14 03:29:33;;;;;;;0.50;0.40;;;12.70;99.90;;;;;;5038594;28;20195;-85
2021/09/14 03:31:59;;;;;;;0.50;0.40;;;12.70;99.90;;;;;;5040163;28;20192;-85
2021/09/14 03:34:28;;;;;;;0.50;0.40;;;12.70;99.90;;;;;;5038385;28;20218;-84
2021/09/14 03:36:54;;;;;;;0.50;0.40;;;12.60;99.90;;;;;;5035586;28;20188;-83
2021/09/14 03:39:21;;;;;;;0.50;0.40;;;12.70;99.90;;;;;;5025865;28;20200;-84
2021/09/14 03:41:48;;;;;;;0.50;0.40;;;12.70;99.90;;;;;;5018183;28;20206;-86
2021/09/14 03:44:15;;;;;;;0.50;0.40;;;12.70;99.90;;;;;;5018552;28;20247;-84
2021/09/14 03:46:41;;;;;;;0.50;0.32;;;12.60;99.90;;;;;;5017804;28;20200;-84
2021/09/14 03:49:08;;;;;;;2.25;2.05;;;12.70;99.90;;;;;;5016783;28;20193;-85
2021/09/14 03:51:36;;;;;;;0.50;0.47;;;12.60;99.90;;;;;;5016977;28;20204;-85
2021/09/14 03:54:03;;;;;;;0.50;0.30;;;12.60;99.90;;;;;;5018512;28;20213;-84
2021/09/14 03:56:30;;;;;;;0.50;0.40;;;12.60;99.90;;;;;;5018314;28;20270;-84
2021/09/14 03:58:57;;;;;;;0.50;0.40;;;12.50;99.90;;;;;;5017577;28;20197;-84
2021/09/14 04:01:23;;;;;;;0.50;0.40;;;12.50;99.90;;;;;;5018111;28;20713;-84
2021/09/14 04:03:56;;;;;;;0.50;0.38;;;12.50;99.90;;;;;;5017086;28;20231;-84
2021/09/14 04:06:37;;;;;;;0.50;0.40;;;12.50;99.90;;;;;;5027211;28;20276;-84
2021/09/14 04:09:05;;;;;;;0.50;0.40;;;12.50;99.90;;;;;;5017565;28;20631;-84
2021/09/14 04:11:32;;;;;;;0.50;0.40;;;12.50;99.90;;;;;;5017078;28;20203;-84
2021/09/14 04:13:59;;;;;;;0.50;0.40;;;12.50;99.90;;;;;;5016465;28;20232;-84
2021/09/14 04:16:25;;;;;;;0.50;0.40;;;12.50;99.90;;;;;;5017051;28;20189;-85
2021/09/14 04:18:52;;;;;;;0.50;0.40;;;12.40;99.90;;;;;;5016455;28;20200;-84
2021/09/14 04:21:19;;;;;;;0.50;0.40;;;12.40;99.90;;;;;;5017644;28;20203;-85
2021/09/14 04:23:46;;;;;;;0.50;0.40;;;12.40;99.90;;;;;;5017760;28;20842;-84
2021/09/14 04:26:14;;;;;;;0.50;0.40;;;12.40;99.90;;;;;;5021514;28;20222;-85
2021/09/14 04:28:41;;;;;;;0.50;0.40;;;12.40;99.90;;;;;;5027861;28;20198;-83
2021/09/14 04:31:08;;;;;;;0.50;0.40;;;12.40;99.90;;;;;;5038431;28;20200;-83
2021/09/14 04:33:35;;;;;;;0.50;0.40;;;12.40;99.90;;;;;;5039054;28;20216;-85
2021/09/14 04:36:01;;;;;;;0.50;0.40;;;12.40;99.90;;;;;;5038551;28;20222;-86
2021/09/14 04:38:28;;;;;;;0.50;0.40;;;12.40;99.90;;;;;;5039058;28;20203;-85
2021/09/14 04:40:55;;;;;;;0.50;0.40;;;12.30;99.90;;;;;;5038758;28;20192;-84
2021/09/14 04:43:23;;;;;;;0.50;0.40;;;12.30;99.90;;;;;;5036840;28;20222;-85
2021/09/14 04:45:51;;;;;;;0.50;0.40;;;12.30;99.90;;;;;;5028121;28;20227;-85
2021/09/14 04:48:18;;;;;;;0.50;0.40;;;12.30;99.90;;;;;;5024871;28;20192;-85
2021/09/14 04:50:45;;;;;;;0.50;0.40;;;12.20;99.90;;;;;;5023720;28;20251;-83
2021/09/14 04:53:12;;;;;;;0.50;0.40;;;12.10;99.90;;;;;;5026682;28;20579;-81
2021/09/14 04:55:38;;;;;;;0.50;0.40;;;12.10;99.90;;;;;;5036827;28;20190;-83
2021/09/14 04:58:05;;;;;;;0.50;0.40;;;12.10;99.90;;;;;;5034558;28;20539;-82
2021/09/14 05:00:33;;;;;;;0.50;0.40;;;12.20;99.90;;;;;;5034849;28;20200;-81
2021/09/14 05:03:00;;;;;;;1.67;1.67;;;12.10;99.90;;;;;;5033836;28;20230;-83
2021/09/14 05:05:27;;;;;;;0.50;0.40;;;12.10;99.90;;;;;;5034474;28;20339;-82
2021/09/14 05:07:54;;;;;;;0.63;0.63;;;12.10;99.90;;;;;;5032822;28;20199;-81
2021/09/14 05:10:21;;;;;;;0.50;0.40;;;12.10;99.90;;;;;;5022978;28;20259;-81
2021/09/14 05:12:48;;;;;;;0.50;0.40;;;12.10;99.90;;;;;;5015136;28;20222;-82
2021/09/14 05:15:15;;;;;;;0.50;0.40;;;12.10;99.90;;;;;;5014031;28;20203;-81
2021/09/14 05:17:43;;;;;;;0.50;0.40;;;12.20;99.90;;;;;;5014019;28;20436;-82
2021/09/14 05:20:13;;;;;;;0.50;0.40;;;12.20;99.90;;;;;;5014363;28;20209;-82
2021/09/14 05:22:40;;;;;;;0.50;0.40;;;12.30;99.90;;;;;;5014520;28;20682;-83
2021/09/14 05:25:07;;;;;;;0.50;0.40;;;12.30;99.90;;;;;;5017308;28;20223;-81
2021/09/14 05:27:34;;;;;;;0.50;0.40;;;12.30;99.90;;;;;;5019449;28;20200;-83
2021/09/14 05:30:01;;;;;;;0.50;0.40;;;12.40;99.90;;;;;;5017760;28;20204;-82
2021/09/14 05:32:28;;;;;;;0.50;0.40;;;12.40;99.90;;;;;;5018812;28;20221;-81
2021/09/14 05:34:56;;;;;;;0.50;0.38;;;12.50;99.90;;;;;;5018167;28;20205;-82
2021/09/14 05:37:23;;;;;;;0.52;0.50;;;12.50;99.90;;;;;;5025156;28;20187;-83
2021/09/14 05:39:50;;;;;;;0.50;0.40;;;12.60;99.90;;;;;;5037730;28;20202;-81
2021/09/14 05:42:16;;;;;;;0.50;0.40;;;12.60;99.90;;;;;;5037644;28;20772;-81
2021/09/14 05:44:43;;;;;;;0.50;0.40;;;12.70;99.90;;;;;;5037768;28;20567;-83
2021/09/14 05:47:10;;;;;;;0.50;0.40;;;12.80;99.90;;;;;;5038106;28;20581;-81
2021/09/14 05:49:37;;;;;;;0.50;0.40;;;12.90;99.90;;;;;;5037228;28;20807;-82
2021/09/14 05:52:06;;;;;;;0.50;0.40;;;13.10;99.90;;;;;;5037414;28;20442;-83
2021/09/14 05:54:32;;;;;;;0.50;0.40;;;13.50;99.90;;;;;;5037667;28;20442;-84
2021/09/14 05:56:59;;;;;;;0.50;0.40;;;13.80;99.90;;;;;;5039565;28;20450;-83
2021/09/14 05:59:26;;;;;;;0.50;0.33;;;13.80;99.90;;;;;;5036771;28;20485;-83
2021/09/14 06:01:53;;;;;;;0.50;0.37;;;13.90;99.90;;;;;;5037500;28;20446;-83
2021/09/14 06:04:20;;;;;;;0.50;0.40;;;14.00;99.90;;;;;;5037729;28;20466;-82
2021/09/14 06:06:47;;;;;;;0.50;0.40;;;14.10;99.90;;;;;;5037207;28;20561;-84
2021/09/14 06:09:15;;;;;;;0.50;0.40;;;14.20;99.90;;;;;;5037734;28;20797;-84
2021/09/14 06:11:41;;;;;;;0.50;0.40;;;14.30;99.90;;;;;;5020695;28;20443;-84
2021/09/14 06:14:08;;;;;;;0.50;0.40;;;14.40;99.90;;;;;;5021580;28;20464;-81
2021/09/14 06:16:35;;;;;;;0.50;0.40;;;14.50;99.90;;;;;;5020798;28;20189;-83
2021/09/14 06:19:02;;;;;;;0.50;0.40;;;14.70;99.90;;;;;;5018791;28;20446;-83
2021/09/14 06:21:28;;;;;;;0.50;0.30;;;14.90;99.90;;;;;;5020181;28;20526;-83
2021/09/14 06:23:55;;;;;;;0.50;0.40;;;15.30;99.90;;;;;;5019515;28;20461;-83
2021/09/14 06:26:23;;;;;;;0.50;0.40;;;15.90;99.90;;;;;;5018057;28;20479;-84
2021/09/14 06:28:50;;;;;;;0.70;0.70;;;16.40;99.90;;;;;;5018130;28;20452;-84
2021/09/14 06:31:17;;;;;;;0.50;0.30;;;17.60;99.90;;;;;;5019251;28;20450;-83
2021/09/14 06:33:43;;;;;;;0.63;0.40;;;19.20;99.90;;;;;;5017887;28;20801;-83
2021/09/14 06:36:10;;;;;;;0.50;0.40;;;20.70;99.90;;;;;;5017010;28;20438;-82
2021/09/14 06:38:38;;;;;;;0.63;0.63;;;21.50;99.90;;;;;;5018502;28;20607;-82
2021/09/14 06:41:05;;;;;;;0.50;0.30;;;21.70;99.90;;;;;;5018062;28;20439;-82
2021/09/14 06:43:33;;;;;;;0.50;0.40;;;22.10;99.90;;;;;;5017910;28;20782;-82
2021/09/14 06:46:00;;;;;;;0.50;0.30;;;22.80;99.90;;;;;;5017604;28;20483;-82
2021/09/14 06:48:27;;;;;;;0.50;0.40;;;23.50;99.90;;;;;;5018960;28;20443;-83
2021/09/14 06:50:54;;;;;;;0.50;0.40;;;24.60;99.90;;;;;;5029150;28;20446;-83
2021/09/14 06:53:22;;;;;;;0.50;0.30;;;25.80;99.90;;;;;;5038915;28;20459;-84
2021/09/14 06:55:49;;;;;;;0.50;0.30;;;26.80;99.90;;;;;;5029699;28;20828;-82
2021/09/14 06:58:16;;;;;;;0.50;0.30;;;27.70;99.90;;;;;;5017392;28;20457;-81
2021/09/14 07:00:44;;;;;;;0.50;0.30;;;28.30;96.20;;;;;;5025414;28;20441;-80
2021/09/14 07:03:11;;;;;;;0.50;0.30;;;28.60;93.70;;;;;;5036222;28;20473;-83
2021/09/14 07:05:39;;;;;;;2.00;1.90;;;28.90;92.20;;;;;;5037034;28;20489;-82
2021/09/14 07:08:06;;;;;;;0.50;0.30;;;29.00;91.10;;;;;;5036910;28;20447;-82
2021/09/14 07:10:33;;;;;;;0.50;0.30;;;29.30;90.50;;;;;;5036863;28;20452;-84
2021/09/14 07:13:00;;;;;;;0.50;0.30;;;29.50;88.00;;;;;;5036634;28;20489;-81
2021/09/14 07:15:26;;;;;;;0.50;0.30;;;29.50;85.10;;;;;;5038077;28;20444;-82
2021/09/14 07:17:55;;;;;;;0.50;0.30;;;28.70;82.10;;;;;;5036471;28;20448;-82
2021/09/14 07:20:21;;;;;;;0.50;0.30;;;27.90;83.40;;;;;;5036136;28;20443;-83
2021/09/14 07:22:48;;;;;;;0.50;0.30;;;26.90;86.00;;;;;;5037204;28;20976;-83
2021/09/14 07:25:15;;;;;;;0.50;0.30;;;25.90;90.50;;;;;;5038688;28;20452;-81
2021/09/14 07:27:42;;;;;;;0.50;0.30;;;25.10;95.20;;;;;;5036295;28;20490;-81
2021/09/14 07:30:09;;;;;;;0.50;0.40;;;24.10;99.90;;;;;;5036664;28;20449;-81
2021/09/14 07:32:36;;;;;;;0.50;0.30;;;23.80;99.90;;;;;;5036473;28;20461;-83
2021/09/14 07:35:05;;;;;;;0.50;0.33;;;23.50;99.90;;;;;;5036634;28;20442;-81
2021/09/14 07:37:32;;;;;;;0.50;0.37;;;23.50;99.90;;;;;;5036793;28;20442;-82
2021/09/14 07:39:59;;;;;;;0.50;0.40;;;23.40;99.90;;;;;;5035288;28;20448;-82
2021/09/14 07:42:25;;;;;;;0.50;0.30;;;23.00;99.90;;;;;;5035925;28;20452;-82
2021/09/14 07:44:54;;;;;;;0.50;0.30;;;22.70;99.90;;;;;;5036347;28;20434;-82
2021/09/14 07:47:21;;;;;;;0.50;0.40;;;22.30;99.90;;;;;;5035582;28;20482;-81
2021/09/14 07:49:47;;;;;;;0.50;0.40;;;22.40;99.90;;;;;;5033686;28;20442;-81
2021/09/14 07:52:16;;;;;;;0.50;0.33;;;22.60;99.90;;;;;;5028841;28;20441;-82
2021/09/14 07:54:43;;;;;;;0.50;0.30;;;23.20;99.90;;;;;;5035296;28;20443;-82
2021/09/14 07:57:09;;;;;;;0.50;0.30;;;23.70;99.90;;;;;;5035698;28;20523;-82
2021/09/14 07:59:36;;;;;;;0.50;0.30;;;24.20;99.90;;;;;;5034099;28;20462;-81
2021/09/14 08:02:03;;;;;;;0.50;0.30;;;25.00;99.90;;;;;;5036014;28;20891;-83
2021/09/14 08:04:30;;;;;;;0.50;0.50;;;26.00;99.90;;;;;;5034980;28;20468;-82
2021/09/14 08:06:57;;;;;;;0.50;0.30;;;26.80;99.90;;;;;;5036638;28;20485;-81
2021/09/14 08:09:28;;;;;;;0.50;0.40;;;27.20;99.50;;;;;;5037254;28;20455;-82
2021/09/14 08:11:55;;;;;;;0.50;0.30;;;27.70;99.90;;;;;;5037632;28;20957;-81
2021/09/14 08:14:22;;;;;;;0.50;0.30;;;28.90;99.80;;;;;;5036150;28;20475;-83
2021/09/14 08:16:48;;;;;;;0.53;0.53;;;30.20;93.50;;;;;;5036185;28;20448;-82
2021/09/14 08:19:15;;;;;;;0.50;0.30;;;30.70;87.40;;;;;;5036159;28;20446;-82
2021/09/14 08:21:42;;;;;;;0.50;0.30;;;30.80;78.80;;;;;;5035649;28;20893;-80
2021/09/14 08:24:11;;;;;;;0.50;0.30;;;30.50;79.60;;;;;;5035231;28;20470;-79
2021/09/14 08:26:40;;;;;;;0.50;0.30;;;30.30;80.80;;;;;;5034966;28;20477;-80
2021/09/14 08:29:07;;;;;;;0.50;0.30;;;29.90;79.00;;;;;;5034863;28;20448;-79
2021/09/14 08:31:34;;;;;;;0.50;0.30;;;29.70;79.70;;;;;;5035146;28;20450;-80
2021/09/14 08:34:01;;;;;;;0.50;0.30;;;29.80;81.10;;;;;;5032220;28;20470;-82
2021/09/14 08:36:28;;;;;;;0.50;0.30;;;30.40;83.90;;;;;;5015743;28;20516;-81
2021/09/14 08:38:55;;;;;;;0.50;0.30;;;31.50;82.60;;;;;;5023213;28;20458;-83
2021/09/14 08:41:22;;;;;;;0.50;0.30;;;33.10;74.80;;;;;;5023236;28;20569;-81
2021/09/14 08:43:52;;;;;;;0.50;0.30;;;33.70;66.80;;;;;;5015794;28;20473;-83
2021/09/14 08:46:21;;;;;;;0.50;0.30;;;34.20;68.80;;;;;;5015025;28;20548;-82
2021/09/14 08:48:48;;;;;;;0.40;0.30;;;35.10;68.50;;;;;;5019102;28;20438;-83
2021/09/14 08:51:16;;;;;;;0.40;0.30;;;36.30;62.60;;;;;;5035748;28;20441;-81
2021/09/14 08:53:43;;;;;;;0.40;0.30;;;37.30;59.60;;;;;;5035327;28;20459;-80
2021/09/14 08:56:11;;;;;;;0.40;0.30;;;38.50;58.40;;;;;;5034128;28;20440;-81
2021/09/14 08:58:38;;;;;;;0.40;0.30;;;39.50;56.60;;;;;;5034300;28;20806;-81
2021/09/14 09:01:12;;;;;;;0.60;0.50;;;39.90;54.90;;;;;;5038687;28;20457;-80
2021/09/14 09:03:39;;;;;;;0.40;0.30;;;40.00;54.70;;;;;;5040437;28;20477;-82
2021/09/14 09:06:06;;;;;;;0.40;0.30;;;40.60;52.20;;;;;;5039667;28;20818;-81
2021/09/14 09:08:34;;;;;;;0.40;0.30;;;40.80;50.40;;;;;;5040714;28;20470;-81
2021/09/14 09:11:06;;;;;;;0.40;0.30;;;40.50;49.70;;;;;;5039606;28;20472;-81
2021/09/14 09:13:35;;;;;;;0.40;0.30;;;39.50;50.10;;;;;;5040452;28;20461;-82
2021/09/14 09:16:06;;;;;;;0.40;0.30;;;39.70;51.10;;;;;;5039896;28;20431;-81
2021/09/14 09:18:34;;;;;;;0.40;0.30;;;39.70;49.80;;;;;;5039118;28;20823;-82
2021/09/14 09:21:02;;;;;;;0.40;0.30;;;40.20;52.60;;;;;;5040378;28;20910;-82
2021/09/14 09:23:29;;;;;;;0.50;0.50;;;40.90;51.40;;;;;;5039664;28;20484;-81
2021/09/14 09:26:07;;;;;;;0.40;0.30;;;41.40;48.90;;;;;;5039875;28;20438;-82
2021/09/14 09:28:34;;;;;;;0.40;0.30;;;41.80;50.10;;;;;;5039326;28;20918;-82
2021/09/14 09:31:08;;;;;;;0.40;0.40;;;41.30;46.60;;;;;;5039439;28;20446;-82
2021/09/14 09:33:37;;;;;;;0.40;0.30;;;40.60;48.80;;;;;;5038541;28;20500;-82
2021/09/14 09:36:06;;;;;;;0.40;0.30;;;40.30;47.50;;;;;;5019803;28;20774;-81
2021/09/14 09:38:44;;;;;;;0.40;0.30;;;39.80;49.00;;;;;;5018274;28;20462;-82
2021/09/14 09:41:15;;;;;;;0.40;0.30;;;40.20;49.20;;;;;;5018721;28;20431;-82
2021/09/14 09:43:42;;;;;;;0.63;0.53;;;40.20;50.00;;;;;;5019410;28;20465;-81
2021/09/14 09:46:10;;;;;;;0.40;0.30;;;40.70;49.60;;;;;;5019099;28;20443;-81
2021/09/14 09:48:39;;;;;;;0.40;0.30;;;40.80;48.50;;;;;;5018597;28;20504;-81
2021/09/14 09:51:06;;;;;;;0.40;0.30;;;41.30;47.90;;;;;;5019094;28;20462;-81
2021/09/14 09:53:35;;;;;;;0.40;0.30;;;41.50;49.50;;;;;;5019067;28;20466;-82
2021/09/14 09:56:03;;;;;;;0.40;0.30;;;41.00;49.60;;;;;;5018858;28;20464;-82
2021/09/14 09:58:30;;;;;;;0.40;0.30;;;40.20;48.10;;;;;;5017784;28;20497;-82
2021/09/14 10:01:01;;;;;;;0.40;0.30;;;39.60;49.50;;;;;;5019435;28;20449;-81
2021/09/14 10:03:31;;;;;;;0.40;0.30;;;39.70;51.70;;;;;;5018928;28;20477;-81
2021/09/14 10:06:08;;;;;;;0.40;0.30;;;40.50;50.40;;;;;;5018915;28;20450;-81
2021/09/14 10:08:36;;;;;;;0.40;0.30;;;40.80;48.90;;;;;;5018569;28;20490;-82
2021/09/14 10:11:03;;;;;;;0.40;0.30;;;40.20;48.10;;;;;;5018290;28;20462;-80
2021/09/14 10:13:30;;;;;;;0.40;0.30;;;39.20;49.40;;;;;;5018689;28;20463;-82
2021/09/14 10:15:57;;;;;;;0.40;0.30;;;38.70;51.30;;;;;;5018664;28;20454;-81
2021/09/14 10:18:28;;;;;;;0.40;0.30;;;38.60;51.10;;;;;;5017448;28;20840;-81
2021/09/14 10:20:54;;;;;;;1.33;1.23;;;38.90;52.10;;;;;;5034445;28;20471;-81
2021/09/14 10:23:24;;;;;;;0.40;0.30;;;39.30;51.60;;;;;;5037881;28;20458;-81
2021/09/14 10:26:03;;;;;;;0.40;0.30;;;39.50;51.00;;;;;;5037740;28;20468;-82
2021/09/14 10:28:42;;;;;;;0.40;0.30;;;39.00;50.00;;;;;;5038157;28;20423;-83
2021/09/14 10:31:20;;;;;;;0.40;0.30;;;38.50;50.70;;;;;;5037482;28;20469;-81
2021/09/14 10:33:46;;;;;;;0.40;0.30;;;38.50;52.50;;;;;;5031419;28;20474;-81
2021/09/14 10:36:14;;;;;;;0.40;0.30;;;39.10;51.80;;;;;;5017603;28;20436;-80
2021/09/14 10:38:49;;;;;;;0.40;0.30;;;38.40;50.90;;;;;;5018082;28;20480;-81
2021/09/14 10:41:17;;;;;;;0.40;0.30;;;38.10;54.10;;;;;;5017190;28;20423;-81
2021/09/14 10:43:54;;;;;;;0.40;0.30;;;37.70;55.30;;;;;;5017915;28;20470;-82
2021/09/14 10:46:22;;;;;;;0.40;0.30;;;37.30;52.20;;;;;;5017439;28;20523;-81
2021/09/14 10:48:52;;;;;;;0.40;0.30;;;36.30;54.10;;;;;;5017462;28;20535;-83
2021/09/14 10:51:19;;;;;;;0.40;0.30;;;36.90;55.70;;;;;;5017822;28;20445;-82
2021/09/14 10:53:56;;;;;;;0.40;0.30;;;36.90;53.30;;;;;;5017834;28;20552;-82
2021/09/14 10:56:23;;;;;;;0.40;0.30;;;37.40;54.50;;;;;;5017069;28;20477;-81
2021/09/14 10:58:50;;;;;;;0.40;0.30;;;37.90;54.60;;;;;;5017627;28;20485;-81
2021/09/14 11:01:25;;;;;;;0.40;0.30;;;38.30;55.20;;;;;;5017469;28;20451;-82
2021/09/14 11:03:52;;;;;;;0.40;0.30;;;39.00;53.30;;;;;;5018121;28;20493;-82
2021/09/14 11:06:19;;;;;;;0.40;0.30;;;39.30;52.00;;;;;;5017502;28;20450;-81
2021/09/14 11:08:46;;;;;;;0.40;0.30;;;40.10;51.40;;;;;;5017351;28;20465;-82
2021/09/14 11:11:18;;;;;;;0.40;0.30;;;40.20;51.10;;;;;;5017371;28;20812;-81
2021/09/14 11:13:45;;;;;;;0.40;0.30;;;39.70;50.00;;;;;;5033711;28;20857;-82
2021/09/14 11:16:16;;;;;;;0.40;0.30;;;39.90;51.50;;;;;;5037134;28;20443;-82
2021/09/14 11:18:44;;;;;;;0.40;0.30;;;39.50;50.50;;;;;;5036264;28;20474;-81
2021/09/14 11:21:12;;;;;;;0.40;0.30;;;39.80;49.40;;;;;;5036955;28;20449;-81
2021/09/14 11:23:41;;;;;;;0.40;0.30;;;38.60;51.10;;;;;;5036115;28;20458;-82
2021/09/14 11:26:09;;;;;;;0.40;0.30;;;38.80;51.90;;;;;;5036265;28;20454;-81
2021/09/14 11:28:38;;;;;;;0.40;0.30;;;38.20;51.00;;;;;;5035731;28;20507;-81
2021/09/14 11:31:09;;;;;;;0.40;0.30;;;38.40;53.30;;;;;;5032739;28;20919;-80
2021/09/14 11:33:38;;;;;;;0.40;0.30;;;38.70;53.50;;;;;;5026970;28;20535;-82
2021/09/14 11:36:07;;;;;;;0.40;0.30;;;38.60;50.90;;;;;;5016905;28;20449;-82
2021/09/14 11:38:34;;;;;;;0.40;0.40;;;38.00;52.50;;;;;;5016347;28;20482;-80
2021/09/14 11:41:03;;;;;;;0.50;0.50;;;37.80;54.20;;;;;;5017112;28;20471;-81
2021/09/14 11:43:34;;;;;;;0.40;0.30;;;37.50;53.10;;;;;;5017162;28;20489;-81
2021/09/14 11:46:12;;;;;;;0.40;0.30;;;37.00;54.70;;;;;;5016638;28;20429;-82
2021/09/14 11:48:41;;;;;;;0.40;0.30;;;37.40;55.40;;;;;;5016249;28;20446;-82
2021/09/14 11:51:10;;;;;;;0.40;0.30;;;37.20;54.10;;;;;;5016529;28;20461;-81
2021/09/14 11:53:38;;;;;;;0.40;0.30;;;37.60;55.10;;;;;;5017182;28;20459;-82
2021/09/14 11:56:11;;;;;;;0.40;0.30;;;37.80;53.00;;;;;;5016743;28;20946;-81
2021/09/14 11:58:38;;;;;;;0.40;0.30;;;37.30;53.60;;;;;;5016375;28;20490;-81
2021/09/14 12:01:08;;;;;;;0.40;0.30;;;37.30;53.30;;;;;;5030365;28;20457;-82
2021/09/14 12:03:38;;;;;;;0.40;0.30;;;36.60;54.00;;;;;;5035373;28;20499;-82
2021/09/14 12:06:05;;;;;;;0.43;0.30;;;36.10;55.10;;;;;;5035671;28;20446;-82
2021/09/14 12:08:34;;;;;;;0.50;0.30;;;35.30;55.00;;;;;;5035519;28;20438;-81
2021/09/14 12:11:01;;;;;;;0.50;0.30;;;34.50;56.50;;;;;;5032575;28;20452;-81
2021/09/14 12:13:35;;;;;;;0.40;0.30;;;34.70;57.80;;;;;;5024065;28;20466;-82
2021/09/14 12:16:09;;;;;;;0.50;0.30;;;34.00;56.20;;;;;;5016717;28;20442;-82
2021/09/14 12:18:37;;;;;;;0.40;0.30;;;34.30;57.90;;;;;;5015931;28;20492;-82
2021/09/14 12:21:03;;;;;;;0.40;0.30;;;35.00;59.50;;;;;;5016711;28;20517;-83
2021/09/14 12:23:31;;;;;;;0.40;0.30;;;36.20;56.10;;;;;;5015730;28;20468;-82
2021/09/14 12:25:57;;;;;;;0.40;0.30;;;37.60;56.00;;;;;;5016679;28;20453;-83
2021/09/14 12:28:24;;;;;;;0.40;0.30;;;38.80;56.40;;;;;;5016077;28;20444;-82
2021/09/14 12:30:51;;;;;;;0.40;0.40;;;39.10;52.40;;;;;;5016677;28;20544;-81
2021/09/14 12:33:19;;;;;;;0.40;0.30;;;38.10;52.80;;;;;;5026287;28;20592;-82
2021/09/14 12:35:46;;;;;;;0.70;0.70;;;37.50;53.80;;;;;;5027352;28;20446;-84
2021/09/14 12:38:13;;;;;;;0.40;0.30;;;37.40;53.20;;;;;;5036612;28;20470;-83
2021/09/14 12:40:39;;;;;;;0.40;0.30;;;36.80;53.70;;;;;;5036277;28;20898;-83
2021/09/14 12:43:06;;;;;;;0.40;0.30;;;36.20;55.50;;;;;;5037285;28;20458;-83
2021/09/14 12:45:33;;;;;;;0.40;0.30;;;35.70;56.10;;;;;;5037488;28;20448;-81
2021/09/14 12:48:00;;;;;;;0.50;0.30;;;34.80;56.50;;;;;;5036921;28;20943;-81
2021/09/14 12:50:28;;;;;;;0.50;0.30;;;34.50;59.00;;;;;;5038712;28;20445;-81
2021/09/14 12:52:55;;;;;;;0.50;0.30;;;34.10;58.90;;;;;;5040202;28;20464;-81
2021/09/14 12:55:23;;;;;;;0.50;0.30;;;33.60;59.40;;;;;;5039592;28;20440;-83
2021/09/14 12:57:50;;;;;;;0.50;0.30;;;32.40;59.30;;;;;;5037152;28;21004;-79
2021/09/14 13:00:17;;;;;;;0.50;0.30;;;32.00;61.70;;;;;;5037881;28;20454;-83
2021/09/14 13:02:44;;;;;;;0.50;0.30;;;31.80;64.30;;;;;;5030409;28;20495;-82
2021/09/14 13:05:11;;;;;;;0.50;0.30;;;31.00;64.30;;;;;;5036546;28;20440;-82
2021/09/14 13:07:40;;;;;;;0.50;0.30;;;31.00;68.30;;;;;;5027283;28;20439;-82
2021/09/14 13:10:09;;;;;;;0.50;0.30;;;31.20;70.30;;;;;;5018308;28;20810;-82
2021/09/14 13:12:36;;;;;;;0.50;0.30;;;31.50;70.00;;;;;;5028735;28;20553;-82
2021/09/14 13:17:48;;;;;;;0.50;0.30;;;31.20;65.80;;;;;;5039940;28;20463;-83
2021/09/14 13:20:15;;;;;;;0.50;0.30;;;31.00;67.60;;;;;;5035623;28;20436;-81
2021/09/14 13:22:43;;;;;;;0.50;0.30;;;30.70;68.30;;;;;;5036680;28;20468;-82
2021/09/14 13:25:11;;;;;;;0.50;0.30;;;30.40;68.60;;;;;;5039096;28;20459;-80
2021/09/14 13:27:38;;;;;;;0.50;0.30;;;30.10;70.60;;;;;;5040343;28;20437;-82
2021/09/14 13:30:05;;;;;;;0.50;0.30;;;29.80;70.30;;;;;;5041013;28;20439;-81
2021/09/14 13:32:32;;;;;;;0.50;0.30;;;29.50;69.20;;;;;;5037926;28;20465;-82
2021/09/14 13:34:59;;;;;;;0.50;0.30;;;29.30;70.60;;;;;;5020606;28;20443;-78
2021/09/14 13:37:25;;;;;;;0.50;0.30;;;29.20;70.80;;;;;;5014276;28;20432;-81
2021/09/14 13:39:53;;;;;;;0.50;0.30;;;29.10;72.40;;;;;;5015882;28;20437;-84